sensor_id;sensor_type;location;lat;lon;timestamp;P1;durP1;ratioP1;P2;durP2;ratioP2
31994;SDS011;51311;50.870;7.048;2022-07-10T00:03:52;0.20;;;0.20;;
31994;SDS011;51311;50.870;7.048;2022-07-10T00:07:52;0.20;;;0.20;;
31994;SDS011;51311;50.870;7.048;2022-07-10T00:11:53;0.20;;;0.10;;
31994;SDS011;51311;50.870;7.048;2022-07-10T00:15:53;0.50;;;0.20;;
31994;SDS011;51311;50.870;7.048;2022-07-10T00:19:53;0.70;;;0.30;;
31994;SDS011;51311;50.870;7.048;2022-07-10T00:23:53;0.20;;;0.10;;
31994;SDS011;51311;50.870;7.048;2022-07-10T00:27:53;0.10;;;0.10;;
31994;SDS011;51311;50.870;7.048;2022-07-10T00:31:53;0.50;;;0.30;;
31994;SDS011;51311;50.870;7.048;2022-07-10T00:35:53;0.10;;;0.10;;
31994;SDS011;51311;50.870;7.048;2022-07-10T00:39:54;0.60;;;0.40;;
31994;SDS011;51311;50.870;7.048;2022-07-10T00:43:55;0.40;;;0.30;;
31994;SDS011;51311;50.870;7.048;2022-07-10T00:47:54;0.50;;;0.30;;
31994;SDS011;51311;50.870;7.048;2022-07-10T00:55:54;0.20;;;0.10;;
31994;SDS011;51311;50.870;7.048;2022-07-10T00:59:54;0.50;;;0.30;;
31994;SDS011;51311;50.870;7.048;2022-07-10T01:03:55;0.80;;;0.30;;
31994;SDS011;51311;50.870;7.048;2022-07-10T01:07:55;0.30;;;0.10;;
31994;SDS011;51311;50.870;7.048;2022-07-10T01:11:56;0.10;;;0.10;;
31994;SDS011;51311;50.870;7.048;2022-07-10T01:15:55;0.30;;;0.10;;
31994;SDS011;51311;50.870;7.048;2022-07-10T01:19:55;0.30;;;0.20;;
31994;SDS011;51311;50.870;7.048;2022-07-10T01:23:55;0.40;;;0.20;;
31994;SDS011;51311;50.870;7.048;2022-07-10T01:27:56;0.30;;;0.20;;
31994;SDS011;51311;50.870;7.048;2022-07-10T01:31:56;0.90;;;0.20;;
31994;SDS011;51311;50.870;7.048;2022-07-10T01:35:56;0.20;;;0.10;;
31994;SDS011;51311;50.870;7.048;2022-07-10T01:39:56;0.70;;;0.20;;
31994;SDS011;51311;50.870;7.048;2022-07-10T01:43:56;0.60;;;0.30;;
31994;SDS011;51311;50.870;7.048;2022-07-10T01:51:57;0.60;;;0.20;;
31994;SDS011;51311;50.870;7.048;2022-07-10T01:55:57;0.40;;;0.20;;
31994;SDS011;51311;50.870;7.048;2022-07-10T01:59:57;0.20;;;0.10;;
31994;SDS011;51311;50.870;7.048;2022-07-10T02:03:57;0.10;;;0.10;;
31994;SDS011;51311;50.870;7.048;2022-07-10T02:07:57;0.10;;;0.10;;
31994;SDS011;51311;50.870;7.048;2022-07-10T02:11:57;0.60;;;0.20;;
31994;SDS011;51311;50.870;7.048;2022-07-10T02:15:58;0.20;;;0.10;;
31994;SDS011;51311;50.870;7.048;2022-07-10T02:19:58;0.10;;;0.10;;
31994;SDS011;51311;50.870;7.048;2022-07-10T02:23:58;0.10;;;0.10;;
31994;SDS011;51311;50.870;7.048;2022-07-10T02:31:58;0.60;;;0.20;;
31994;SDS011;51311;50.870;7.048;2022-07-10T02:35:58;0.70;;;0.20;;
31994;SDS011;51311;50.870;7.048;2022-07-10T02:39:58;0.20;;;0.10;;
31994;SDS011;51311;50.870;7.048;2022-07-10T02:43:59;0.10;;;0.10;;
31994;SDS011;51311;50.870;7.048;2022-07-10T02:47:59;0.50;;;0.20;;
31994;SDS011;51311;50.870;7.048;2022-07-10T02:51:59;0.30;;;0.10;;
31994;SDS011;51311;50.870;7.048;2022-07-10T02:55:59;0.20;;;0.10;;
31994;SDS011;51311;50.870;7.048;2022-07-10T02:59:59;0.20;;;0.10;;
31994;SDS011;51311;50.870;7.048;2022-07-10T03:03:59;0.30;;;0.20;;
31994;SDS011;51311;50.870;7.048;2022-07-10T03:07:59;0.10;;;0.10;;
31994;SDS011;51311;50.870;7.048;2022-07-10T03:12:00;0.30;;;0.20;;
31994;SDS011;51311;50.870;7.048;2022-07-10T03:16:00;0.30;;;0.20;;
31994;SDS011;51311;50.870;7.048;2022-07-10T03:20:00;0.30;;;0.10;;
31994;SDS011;51311;50.870;7.048;2022-07-10T03:24:00;0.40;;;0.20;;
31994;SDS011;51311;50.870;7.048;2022-07-10T03:28:00;0.50;;;0.20;;
31994;SDS011;51311;50.870;7.048;2022-07-10T03:32:00;0.30;;;0.20;;
31994;SDS011;51311;50.870;7.048;2022-07-10T03:36:01;0.30;;;0.10;;
31994;SDS011;51311;50.870;7.048;2022-07-10T03:40:01;0.30;;;0.10;;
31994;SDS011;51311;50.870;7.048;2022-07-10T03:44:01;0.20;;;0.10;;
31994;SDS011;51311;50.870;7.048;2022-07-10T03:48:01;1.10;;;0.50;;
31994;SDS011;51311;50.870;7.048;2022-07-10T03:52:01;0.00;;;0.00;;
31994;SDS011;51311;50.870;7.048;2022-07-10T03:56:01;0.10;;;0.10;;
31994;SDS011;51311;50.870;7.048;2022-07-10T04:00:02;0.10;;;0.10;;
31994;SDS011;51311;50.870;7.048;2022-07-10T04:04:02;1.40;;;0.10;;
31994;SDS011;51311;50.870;7.048;2022-07-10T04:08:02;0.40;;;0.20;;
31994;SDS011;51311;50.870;7.048;2022-07-10T04:12:02;0.30;;;0.10;;
31994;SDS011;51311;50.870;7.048;2022-07-10T04:16:02;0.40;;;0.10;;
31994;SDS011;51311;50.870;7.048;2022-07-10T04:20:02;0.10;;;0.10;;
31994;SDS011;51311;50.870;7.048;2022-07-10T04:24:03;0.30;;;0.30;;
31994;SDS011;51311;50.870;7.048;2022-07-10T04:28:03;0.00;;;0.00;;
31994;SDS011;51311;50.870;7.048;2022-07-10T04:32:03;0.20;;;0.10;;
31994;SDS011;51311;50.870;7.048;2022-07-10T04:36:03;0.10;;;0.10;;
31994;SDS011;51311;50.870;7.048;2022-07-10T04:40:03;0.30;;;0.20;;
31994;SDS011;51311;50.870;7.048;2022-07-10T04:44:03;0.00;;;0.00;;
31994;SDS011;51311;50.870;7.048;2022-07-10T04:48:04;0.20;;;0.10;;
31994;SDS011;51311;50.870;7.048;2022-07-10T04:52:04;0.30;;;0.10;;
31994;SDS011;51311;50.870;7.048;2022-07-10T04:56:04;0.00;;;0.00;;
31994;SDS011;51311;50.870;7.048;2022-07-10T05:00:04;0.20;;;0.00;;
31994;SDS011;51311;50.870;7.048;2022-07-10T05:04:04;0.20;;;0.10;;
31994;SDS011;51311;50.870;7.048;2022-07-10T05:08:04;0.00;;;0.00;;
31994;SDS011;51311;50.870;7.048;2022-07-10T05:12:04;0.10;;;0.10;;
31994;SDS011;51311;50.870;7.048;2022-07-10T05:16:05;0.40;;;0.20;;
31994;SDS011;51311;50.870;7.048;2022-07-10T05:20:05;0.00;;;0.00;;
31994;SDS011;51311;50.870;7.048;2022-07-10T05:24:05;0.30;;;0.10;;
31994;SDS011;51311;50.870;7.048;2022-07-10T05:28:05;0.10;;;0.10;;
31994;SDS011;51311;50.870;7.048;2022-07-10T05:32:05;0.30;;;0.20;;
31994;SDS011;51311;50.870;7.048;2022-07-10T05:36:06;0.20;;;0.00;;
31994;SDS011;51311;50.870;7.048;2022-07-10T05:40:06;1.60;;;0.30;;
31994;SDS011;51311;50.870;7.048;2022-07-10T05:44:06;0.20;;;0.10;;
31994;SDS011;51311;50.870;7.048;2022-07-10T05:48:06;0.20;;;0.10;;
31994;SDS011;51311;50.870;7.048;2022-07-10T05:52:06;0.10;;;0.10;;
31994;SDS011;51311;50.870;7.048;2022-07-10T05:56:06;0.10;;;0.10;;
31994;SDS011;51311;50.870;7.048;2022-07-10T06:00:07;0.30;;;0.30;;
31994;SDS011;51311;50.870;7.048;2022-07-10T06:04:06;0.10;;;0.00;;
31994;SDS011;51311;50.870;7.048;2022-07-10T06:08:07;2.10;;;0.10;;
31994;SDS011;51311;50.870;7.048;2022-07-10T06:12:07;0.10;;;0.10;;
31994;SDS011;51311;50.870;7.048;2022-07-10T06:16:07;0.50;;;0.20;;
31994;SDS011;51311;50.870;7.048;2022-07-10T06:20:07;1.00;;;0.20;;
31994;SDS011;51311;50.870;7.048;2022-07-10T06:24:07;0.20;;;0.10;;
31994;SDS011;51311;50.870;7.048;2022-07-10T06:28:07;0.20;;;0.10;;
31994;SDS011;51311;50.870;7.048;2022-07-10T06:32:08;0.10;;;0.10;;
31994;SDS011;51311;50.870;7.048;2022-07-10T06:36:08;0.30;;;0.10;;
31994;SDS011;51311;50.870;7.048;2022-07-10T06:40:09;1.70;;;0.10;;
31994;SDS011;51311;50.870;7.048;2022-07-10T06:44:08;0.10;;;0.10;;
31994;SDS011;51311;50.870;7.048;2022-07-10T06:48:08;0.00;;;0.00;;
31994;SDS011;51311;50.870;7.048;2022-07-10T06:52:08;0.90;;;0.20;;
31994;SDS011;51311;50.870;7.048;2022-07-10T06:56:08;0.20;;;0.10;;
31994;SDS011;51311;50.870;7.048;2022-07-10T07:00:09;0.10;;;0.10;;
31994;SDS011;51311;50.870;7.048;2022-07-10T07:04:09;0.20;;;0.10;;
31994;SDS011;51311;50.870;7.048;2022-07-10T07:08:09;0.20;;;0.10;;
31994;SDS011;51311;50.870;7.048;2022-07-10T07:12:09;1.90;;;0.10;;
31994;SDS011;51311;50.870;7.048;2022-07-10T07:16:09;0.10;;;0.10;;
31994;SDS011;51311;50.870;7.048;2022-07-10T07:20:09;0.20;;;0.20;;
31994;SDS011;51311;50.870;7.048;2022-07-10T07:24:10;0.10;;;0.10;;
31994;SDS011;51311;50.870;7.048;2022-07-10T07:28:10;0.40;;;0.20;;
31994;SDS011;51311;50.870;7.048;2022-07-10T07:32:10;0.40;;;0.20;;
31994;SDS011;51311;50.870;7.048;2022-07-10T07:36:10;1.00;;;0.30;;
31994;SDS011;51311;50.870;7.048;2022-07-10T07:40:12;0.70;;;0.20;;
31994;SDS011;51311;50.870;7.048;2022-07-10T07:44:10;2.10;;;0.70;;
31994;SDS011;51311;50.870;7.048;2022-07-10T07:48:11;0.60;;;0.30;;
31994;SDS011;51311;50.870;7.048;2022-07-10T07:52:11;2.10;;;0.60;;
31994;SDS011;51311;50.870;7.048;2022-07-10T07:56:11;2.10;;;0.70;;
31994;SDS011;51311;50.870;7.048;2022-07-10T08:00:12;4.80;;;0.60;;
31994;SDS011;51311;50.870;7.048;2022-07-10T08:04:11;2.20;;;1.00;;
31994;SDS011;51311;50.870;7.048;2022-07-10T08:08:12;1.70;;;0.40;;
31994;SDS011;51311;50.870;7.048;2022-07-10T08:12:12;1.40;;;0.60;;
31994;SDS011;51311;50.870;7.048;2022-07-10T08:16:12;2.70;;;0.60;;
31994;SDS011;51311;50.870;7.048;2022-07-10T08:20:12;0.50;;;0.30;;
31994;SDS011;51311;50.870;7.048;2022-07-10T08:24:13;1.90;;;0.70;;
31994;SDS011;51311;50.870;7.048;2022-07-10T08:28:13;2.30;;;0.50;;
31994;SDS011;51311;50.870;7.048;2022-07-10T08:32:13;0.90;;;0.60;;
31994;SDS011;51311;50.870;7.048;2022-07-10T08:36:13;2.90;;;0.50;;
31994;SDS011;51311;50.870;7.048;2022-07-10T08:40:15;2.10;;;0.40;;
31994;SDS011;51311;50.870;7.048;2022-07-10T08:44:14;1.50;;;0.70;;
31994;SDS011;51311;50.870;7.048;2022-07-10T08:48:14;1.20;;;0.50;;
31994;SDS011;51311;50.870;7.048;2022-07-10T08:52:21;1.50;;;0.50;;
31994;SDS011;51311;50.870;7.048;2022-07-10T08:56:14;1.70;;;0.50;;
31994;SDS011;51311;50.870;7.048;2022-07-10T09:00:15;1.40;;;0.70;;
31994;SDS011;51311;50.870;7.048;2022-07-10T09:04:16;1.00;;;0.50;;
31994;SDS011;51311;50.870;7.048;2022-07-10T09:08:22;0.90;;;0.60;;
31994;SDS011;51311;50.870;7.048;2022-07-10T09:12:15;2.70;;;0.70;;
31994;SDS011;51311;50.870;7.048;2022-07-10T09:16:29;3.80;;;1.00;;
31994;SDS011;51311;50.870;7.048;2022-07-10T09:20:36;1.50;;;0.70;;
31994;SDS011;51311;50.870;7.048;2022-07-10T09:24:17;3.40;;;0.80;;
31994;SDS011;51311;50.870;7.048;2022-07-10T09:28:17;1.30;;;0.70;;
31994;SDS011;51311;50.870;7.048;2022-07-10T09:32:17;2.00;;;0.90;;
31994;SDS011;51311;50.870;7.048;2022-07-10T09:36:17;1.60;;;0.90;;
31994;SDS011;51311;50.870;7.048;2022-07-10T09:40:17;1.00;;;0.80;;
31994;SDS011;51311;50.870;7.048;2022-07-10T09:44:18;7.70;;;1.30;;
31994;SDS011;51311;50.870;7.048;2022-07-10T09:48:18;3.60;;;1.00;;
31994;SDS011;51311;50.870;7.048;2022-07-10T09:52:18;2.80;;;1.40;;
31994;SDS011;51311;50.870;7.048;2022-07-10T09:56:18;2.60;;;1.40;;
31994;SDS011;51311;50.870;7.048;2022-07-10T10:00:18;3.00;;;1.20;;
31994;SDS011;51311;50.870;7.048;2022-07-10T10:04:19;2.10;;;1.00;;
31994;SDS011;51311;50.870;7.048;2022-07-10T10:08:20;2.50;;;1.10;;
31994;SDS011;51311;50.870;7.048;2022-07-10T10:12:21;2.80;;;1.20;;
31994;SDS011;51311;50.870;7.048;2022-07-10T10:16:19;1.90;;;0.90;;
31994;SDS011;51311;50.870;7.048;2022-07-10T10:20:20;2.00;;;1.00;;
31994;SDS011;51311;50.870;7.048;2022-07-10T10:24:20;3.80;;;0.80;;
31994;SDS011;51311;50.870;7.048;2022-07-10T10:28:21;2.10;;;0.80;;
31994;SDS011;51311;50.870;7.048;2022-07-10T10:32:20;1.40;;;0.70;;
31994;SDS011;51311;50.870;7.048;2022-07-10T10:36:46;2.40;;;1.30;;
31994;SDS011;51311;50.870;7.048;2022-07-10T10:40:29;2.10;;;1.00;;
31994;SDS011;51311;50.870;7.048;2022-07-10T10:44:23;3.00;;;1.10;;
31994;SDS011;51311;50.870;7.048;2022-07-10T10:48:23;1.60;;;0.70;;
31994;SDS011;51311;50.870;7.048;2022-07-10T10:52:23;2.20;;;0.90;;
31994;SDS011;51311;50.870;7.048;2022-07-10T10:56:23;1.90;;;1.20;;
31994;SDS011;51311;50.870;7.048;2022-07-10T11:00:30;1.70;;;0.90;;
31994;SDS011;51311;50.870;7.048;2022-07-10T11:04:24;1.50;;;0.80;;
31994;SDS011;51311;50.870;7.048;2022-07-10T11:08:43;1.80;;;1.10;;
31994;SDS011;51311;50.870;7.048;2022-07-10T11:12:24;1.30;;;0.70;;
31994;SDS011;51311;50.870;7.048;2022-07-10T11:16:24;2.30;;;0.70;;
31994;SDS011;51311;50.870;7.048;2022-07-10T11:20:25;2.40;;;0.70;;
31994;SDS011;51311;50.870;7.048;2022-07-10T11:24:31;1.00;;;0.60;;
31994;SDS011;51311;50.870;7.048;2022-07-10T11:28:25;1.50;;;0.90;;
31994;SDS011;51311;50.870;7.048;2022-07-10T11:32:26;0.80;;;0.70;;
31994;SDS011;51311;50.870;7.048;2022-07-10T11:36:26;1.20;;;0.80;;
31994;SDS011;51311;50.870;7.048;2022-07-10T11:40:26;1.10;;;0.80;;
31994;SDS011;51311;50.870;7.048;2022-07-10T11:44:26;2.90;;;0.80;;
31994;SDS011;51311;50.870;7.048;2022-07-10T11:48:26;1.20;;;0.60;;
31994;SDS011;51311;50.870;7.048;2022-07-10T11:52:27;1.00;;;0.70;;
31994;SDS011;51311;50.870;7.048;2022-07-10T12:00:28;2.30;;;0.90;;
31994;SDS011;51311;50.870;7.048;2022-07-10T12:04:28;1.30;;;0.70;;
31994;SDS011;51311;50.870;7.048;2022-07-10T12:08:27;0.80;;;0.50;;
31994;SDS011;51311;50.870;7.048;2022-07-10T12:12:28;0.90;;;0.60;;
31994;SDS011;51311;50.870;7.048;2022-07-10T12:16:28;1.00;;;0.50;;
31994;SDS011;51311;50.870;7.048;2022-07-10T12:20:28;1.20;;;0.80;;
31994;SDS011;51311;50.870;7.048;2022-07-10T12:24:28;0.90;;;0.50;;
31994;SDS011;51311;50.870;7.048;2022-07-10T12:28:28;0.80;;;0.60;;
31994;SDS011;51311;50.870;7.048;2022-07-10T12:32:29;0.90;;;0.60;;
31994;SDS011;51311;50.870;7.048;2022-07-10T12:36:49;1.30;;;0.60;;
31994;SDS011;51311;50.870;7.048;2022-07-10T12:40:29;0.50;;;0.50;;
31994;SDS011;51311;50.870;7.048;2022-07-10T12:44:30;0.80;;;0.70;;
31994;SDS011;51311;50.870;7.048;2022-07-10T12:48:29;0.90;;;0.50;;
31994;SDS011;51311;50.870;7.048;2022-07-10T12:56:33;1.20;;;0.70;;
31994;SDS011;51311;50.870;7.048;2022-07-10T13:00:31;0.80;;;0.50;;
31994;SDS011;51311;50.870;7.048;2022-07-10T13:04:30;1.50;;;0.50;;
31994;SDS011;51311;50.870;7.048;2022-07-10T13:08:43;0.60;;;0.60;;
31994;SDS011;51311;50.870;7.048;2022-07-10T13:12:31;0.90;;;0.50;;
31994;SDS011;51311;50.870;7.048;2022-07-10T13:16:31;0.80;;;0.50;;
31994;SDS011;51311;50.870;7.048;2022-07-10T13:20:31;1.20;;;0.50;;
31994;SDS011;51311;50.870;7.048;2022-07-10T13:24:31;2.00;;;0.80;;
31994;SDS011;51311;50.870;7.048;2022-07-10T13:28:31;1.20;;;0.40;;
31994;SDS011;51311;50.870;7.048;2022-07-10T13:32:31;0.90;;;0.50;;
31994;SDS011;51311;50.870;7.048;2022-07-10T13:36:32;1.10;;;0.50;;
31994;SDS011;51311;50.870;7.048;2022-07-10T13:40:33;0.60;;;0.40;;
31994;SDS011;51311;50.870;7.048;2022-07-10T13:44:32;1.30;;;0.50;;
31994;SDS011;51311;50.870;7.048;2022-07-10T13:48:32;0.40;;;0.30;;
31994;SDS011;51311;50.870;7.048;2022-07-10T13:52:32;0.80;;;0.60;;
31994;SDS011;51311;50.870;7.048;2022-07-10T13:56:32;0.50;;;0.30;;
31994;SDS011;51311;50.870;7.048;2022-07-10T14:00:32;0.70;;;0.50;;
31994;SDS011;51311;50.870;7.048;2022-07-10T14:04:33;0.60;;;0.40;;
31994;SDS011;51311;50.870;7.048;2022-07-10T14:12:33;0.70;;;0.40;;
31994;SDS011;51311;50.870;7.048;2022-07-10T14:16:33;0.80;;;0.40;;
31994;SDS011;51311;50.870;7.048;2022-07-10T14:20:33;0.50;;;0.40;;
31994;SDS011;51311;50.870;7.048;2022-07-10T14:24:33;0.70;;;0.40;;
31994;SDS011;51311;50.870;7.048;2022-07-10T14:28:34;0.60;;;0.50;;
31994;SDS011;51311;50.870;7.048;2022-07-10T14:32:34;0.70;;;0.40;;
31994;SDS011;51311;50.870;7.048;2022-07-10T14:36:34;0.40;;;0.40;;
31994;SDS011;51311;50.870;7.048;2022-07-10T14:40:34;0.20;;;0.20;;
31994;SDS011;51311;50.870;7.048;2022-07-10T14:44:34;0.50;;;0.40;;
31994;SDS011;51311;50.870;7.048;2022-07-10T14:48:35;0.60;;;0.40;;
31994;SDS011;51311;50.870;7.048;2022-07-10T14:52:34;1.10;;;0.50;;
31994;SDS011;51311;50.870;7.048;2022-07-10T14:56:35;0.40;;;0.30;;
31994;SDS011;51311;50.870;7.048;2022-07-10T15:00:35;0.80;;;0.40;;
31994;SDS011;51311;50.870;7.048;2022-07-10T15:04:35;0.50;;;0.30;;
31994;SDS011;51311;50.870;7.048;2022-07-10T15:08:35;0.70;;;0.50;;
31994;SDS011;51311;50.870;7.048;2022-07-10T15:12:35;0.40;;;0.40;;
31994;SDS011;51311;50.870;7.048;2022-07-10T15:16:36;0.50;;;0.30;;
31994;SDS011;51311;50.870;7.048;2022-07-10T15:20:36;0.90;;;0.40;;
31994;SDS011;51311;50.870;7.048;2022-07-10T15:24:36;0.50;;;0.40;;
31994;SDS011;51311;50.870;7.048;2022-07-10T15:28:36;0.40;;;0.40;;
31994;SDS011;51311;50.870;7.048;2022-07-10T15:32:37;0.40;;;0.30;;
31994;SDS011;51311;50.870;7.048;2022-07-10T15:36:36;0.70;;;0.50;;
31994;SDS011;51311;50.870;7.048;2022-07-10T15:40:36;0.70;;;0.40;;
31994;SDS011;51311;50.870;7.048;2022-07-10T15:44:37;1.00;;;0.60;;
31994;SDS011;51311;50.870;7.048;2022-07-10T15:48:37;0.70;;;0.40;;
31994;SDS011;51311;50.870;7.048;2022-07-10T15:52:37;1.10;;;0.40;;
31994;SDS011;51311;50.870;7.048;2022-07-10T15:56:37;1.20;;;0.40;;
31994;SDS011;51311;50.870;7.048;2022-07-10T16:00:37;0.60;;;0.30;;
31994;SDS011;51311;50.870;7.048;2022-07-10T16:04:37;0.70;;;0.40;;
31994;SDS011;51311;50.870;7.048;2022-07-10T16:08:38;0.30;;;0.20;;
31994;SDS011;51311;50.870;7.048;2022-07-10T16:12:38;0.60;;;0.40;;
31994;SDS011;51311;50.870;7.048;2022-07-10T16:16:38;0.80;;;0.40;;
31994;SDS011;51311;50.870;7.048;2022-07-10T16:20:38;0.50;;;0.30;;
31994;SDS011;51311;50.870;7.048;2022-07-10T16:24:38;0.70;;;0.50;;
31994;SDS011;51311;50.870;7.048;2022-07-10T16:28:38;0.50;;;0.30;;
31994;SDS011;51311;50.870;7.048;2022-07-10T16:32:38;0.20;;;0.20;;
31994;SDS011;51311;50.870;7.048;2022-07-10T16:36:39;0.70;;;0.40;;
31994;SDS011;51311;50.870;7.048;2022-07-10T16:40:39;1.10;;;0.50;;
31994;SDS011;51311;50.870;7.048;2022-07-10T16:44:39;0.40;;;0.20;;
31994;SDS011;51311;50.870;7.048;2022-07-10T16:48:39;0.30;;;0.20;;
31994;SDS011;51311;50.870;7.048;2022-07-10T16:52:39;0.70;;;0.40;;
31994;SDS011;51311;50.870;7.048;2022-07-10T17:00:40;0.30;;;0.30;;
31994;SDS011;51311;50.870;7.048;2022-07-10T17:04:40;0.70;;;0.30;;
31994;SDS011;51311;50.870;7.048;2022-07-10T17:08:40;0.50;;;0.30;;
31994;SDS011;51311;50.870;7.048;2022-07-10T17:12:40;1.00;;;0.40;;
31994;SDS011;51311;50.870;7.048;2022-07-10T17:16:40;0.30;;;0.30;;
31994;SDS011;51311;50.870;7.048;2022-07-10T17:20:40;0.30;;;0.20;;
31994;SDS011;51311;50.870;7.048;2022-07-10T17:24:40;0.50;;;0.40;;
31994;SDS011;51311;50.870;7.048;2022-07-10T17:28:41;0.60;;;0.30;;
31994;SDS011;51311;50.870;7.048;2022-07-10T17:32:41;0.30;;;0.20;;
31994;SDS011;51311;50.870;7.048;2022-07-10T17:36:41;0.70;;;0.20;;
31994;SDS011;51311;50.870;7.048;2022-07-10T17:40:41;0.70;;;0.40;;
31994;SDS011;51311;50.870;7.048;2022-07-10T17:44:41;0.70;;;0.30;;
31994;SDS011;51311;50.870;7.048;2022-07-10T17:48:41;1.00;;;0.40;;
31994;SDS011;51311;50.870;7.048;2022-07-10T17:52:42;0.30;;;0.20;;
31994;SDS011;51311;50.870;7.048;2022-07-10T17:56:42;0.30;;;0.20;;
31994;SDS011;51311;50.870;7.048;2022-07-10T18:00:42;0.30;;;0.30;;
31994;SDS011;51311;50.870;7.048;2022-07-10T18:04:42;0.60;;;0.30;;
31994;SDS011;51311;50.870;7.048;2022-07-10T18:08:42;0.30;;;0.30;;
31994;SDS011;51311;50.870;7.048;2022-07-10T18:12:42;0.30;;;0.20;;
31994;SDS011;51311;50.870;7.048;2022-07-10T18:16:43;0.90;;;0.40;;
31994;SDS011;51311;50.870;7.048;2022-07-10T18:20:43;0.30;;;0.20;;
31994;SDS011;51311;50.870;7.048;2022-07-10T18:24:43;1.20;;;0.50;;
31994;SDS011;51311;50.870;7.048;2022-07-10T18:28:43;0.60;;;0.40;;
31994;SDS011;51311;50.870;7.048;2022-07-10T18:32:43;0.30;;;0.30;;
31994;SDS011;51311;50.870;7.048;2022-07-10T18:36:43;0.30;;;0.20;;
31994;SDS011;51311;50.870;7.048;2022-07-10T18:40:43;0.70;;;0.40;;
31994;SDS011;51311;50.870;7.048;2022-07-10T18:44:44;0.30;;;0.20;;
31994;SDS011;51311;50.870;7.048;2022-07-10T18:48:44;0.60;;;0.30;;
31994;SDS011;51311;50.870;7.048;2022-07-10T18:52:44;0.60;;;0.30;;
31994;SDS011;51311;50.870;7.048;2022-07-10T18:56:44;0.60;;;0.30;;
31994;SDS011;51311;50.870;7.048;2022-07-10T19:00:44;1.00;;;0.40;;
31994;SDS011;51311;50.870;7.048;2022-07-10T19:04:44;0.30;;;0.20;;
31994;SDS011;51311;50.870;7.048;2022-07-10T19:08:45;0.20;;;0.20;;
31994;SDS011;51311;50.870;7.048;2022-07-10T19:12:45;0.40;;;0.30;;
31994;SDS011;51311;50.870;7.048;2022-07-10T19:16:45;0.20;;;0.10;;
31994;SDS011;51311;50.870;7.048;2022-07-10T19:20:45;0.40;;;0.30;;
31994;SDS011;51311;50.870;7.048;2022-07-10T19:24:45;0.20;;;0.20;;
31994;SDS011;51311;50.870;7.048;2022-07-10T19:28:45;0.10;;;0.10;;
31994;SDS011;51311;50.870;7.048;2022-07-10T19:32:45;0.60;;;0.30;;
31994;SDS011;51311;50.870;7.048;2022-07-10T19:36:46;0.30;;;0.20;;
31994;SDS011;51311;50.870;7.048;2022-07-10T19:40:46;0.60;;;0.30;;
31994;SDS011;51311;50.870;7.048;2022-07-10T19:48:47;0.40;;;0.20;;
31994;SDS011;51311;50.870;7.048;2022-07-10T19:52:48;0.10;;;0.10;;
31994;SDS011;51311;50.870;7.048;2022-07-10T19:56:48;0.50;;;0.30;;
31994;SDS011;51311;50.870;7.048;2022-07-10T20:00:48;0.20;;;0.20;;
31994;SDS011;51311;50.870;7.048;2022-07-10T20:04:48;1.00;;;0.40;;
31994;SDS011;51311;50.870;7.048;2022-07-10T20:08:48;0.30;;;0.20;;
31994;SDS011;51311;50.870;7.048;2022-07-10T20:12:48;0.30;;;0.20;;
31994;SDS011;51311;50.870;7.048;2022-07-10T20:16:49;0.50;;;0.30;;
31994;SDS011;51311;50.870;7.048;2022-07-10T20:20:49;0.30;;;0.30;;
31994;SDS011;51311;50.870;7.048;2022-07-10T20:24:49;0.20;;;0.20;;
31994;SDS011;51311;50.870;7.048;2022-07-10T20:28:49;0.50;;;0.30;;
31994;SDS011;51311;50.870;7.048;2022-07-10T20:32:49;0.70;;;0.40;;
31994;SDS011;51311;50.870;7.048;2022-07-10T20:36:49;0.80;;;0.30;;
31994;SDS011;51311;50.870;7.048;2022-07-10T20:40:49;0.40;;;0.20;;
31994;SDS011;51311;50.870;7.048;2022-07-10T20:44:50;0.40;;;0.20;;
31994;SDS011;51311;50.870;7.048;2022-07-10T20:48:50;0.50;;;0.20;;
31994;SDS011;51311;50.870;7.048;2022-07-10T20:52:50;0.40;;;0.20;;
31994;SDS011;51311;50.870;7.048;2022-07-10T20:56:50;0.60;;;0.60;;
31994;SDS011;51311;50.870;7.048;2022-07-10T21:00:50;0.40;;;0.30;;
31994;SDS011;51311;50.870;7.048;2022-07-10T21:04:50;0.30;;;0.20;;
31994;SDS011;51311;50.870;7.048;2022-07-10T21:08:51;0.20;;;0.20;;
31994;SDS011;51311;50.870;7.048;2022-07-10T21:12:51;0.30;;;0.10;;
31994;SDS011;51311;50.870;7.048;2022-07-10T21:16:51;0.70;;;0.30;;
31994;SDS011;51311;50.870;7.048;2022-07-10T21:20:52;0.40;;;0.30;;
31994;SDS011;51311;50.870;7.048;2022-07-10T21:24:51;1.10;;;0.30;;
31994;SDS011;51311;50.870;7.048;2022-07-10T21:28:51;0.30;;;0.20;;
31994;SDS011;51311;50.870;7.048;2022-07-10T21:32:52;0.20;;;0.20;;
31994;SDS011;51311;50.870;7.048;2022-07-10T21:36:52;0.50;;;0.40;;
31994;SDS011;51311;50.870;7.048;2022-07-10T21:40:52;0.10;;;0.10;;
31994;SDS011;51311;50.870;7.048;2022-07-10T21:44:52;0.40;;;0.20;;
31994;SDS011;51311;50.870;7.048;2022-07-10T21:48:52;0.30;;;0.20;;
31994;SDS011;51311;50.870;7.048;2022-07-10T21:52:52;0.30;;;0.20;;
31994;SDS011;51311;50.870;7.048;2022-07-10T21:56:52;0.60;;;0.40;;
31994;SDS011;51311;50.870;7.048;2022-07-10T22:00:53;0.30;;;0.30;;
31994;SDS011;51311;50.870;7.048;2022-07-10T22:04:53;0.10;;;0.10;;
31994;SDS011;51311;50.870;7.048;2022-07-10T22:08:53;0.30;;;0.20;;
31994;SDS011;51311;50.870;7.048;2022-07-10T22:12:53;0.50;;;0.30;;
31994;SDS011;51311;50.870;7.048;2022-07-10T22:16:53;0.40;;;0.20;;
31994;SDS011;51311;50.870;7.048;2022-07-10T22:20:53;0.30;;;0.30;;
31994;SDS011;51311;50.870;7.048;2022-07-10T22:24:54;0.20;;;0.20;;
31994;SDS011;51311;50.870;7.048;2022-07-10T22:28:54;0.30;;;0.20;;
31994;SDS011;51311;50.870;7.048;2022-07-10T22:32:54;0.50;;;0.40;;
31994;SDS011;51311;50.870;7.048;2022-07-10T22:36:54;0.80;;;0.20;;
31994;SDS011;51311;50.870;7.048;2022-07-10T22:40:54;0.60;;;0.30;;
31994;SDS011;51311;50.870;7.048;2022-07-10T22:44:54;0.50;;;0.40;;
31994;SDS011;51311;50.870;7.048;2022-07-10T22:48:54;0.30;;;0.20;;
31994;SDS011;51311;50.870;7.048;2022-07-10T22:52:55;0.30;;;0.20;;
31994;SDS011;51311;50.870;7.048;2022-07-10T22:56:55;0.30;;;0.20;;
31994;SDS011;51311;50.870;7.048;2022-07-10T23:00:55;0.60;;;0.30;;
31994;SDS011;51311;50.870;7.048;2022-07-10T23:04:55;0.30;;;0.30;;
31994;SDS011;51311;50.870;7.048;2022-07-10T23:08:55;0.50;;;0.20;;
31994;SDS011;51311;50.870;7.048;2022-07-10T23:12:55;0.50;;;0.30;;
31994;SDS011;51311;50.870;7.048;2022-07-10T23:16:56;0.40;;;0.20;;
31994;SDS011;51311;50.870;7.048;2022-07-10T23:20:56;0.40;;;0.20;;
31994;SDS011;51311;50.870;7.048;2022-07-10T23:24:56;0.30;;;0.30;;
31994;SDS011;51311;50.870;7.048;2022-07-10T23:28:56;0.20;;;0.20;;
31994;SDS011;51311;50.870;7.048;2022-07-10T23:32:56;0.20;;;0.20;;
31994;SDS011;51311;50.870;7.048;2022-07-10T23:36:57;0.40;;;0.20;;
31994;SDS011;51311;50.870;7.048;2022-07-10T23:40:56;0.50;;;0.20;;
31994;SDS011;51311;50.870;7.048;2022-07-10T23:44:57;0.20;;;0.10;;
31994;SDS011;51311;50.870;7.048;2022-07-10T23:48:57;0.20;;;0.20;;
31994;SDS011;51311;50.870;7.048;2022-07-10T23:52:57;0.10;;;0.10;;
31994;SDS011;51311;50.870;7.048;2022-07-10T23:56:57;0.60;;;0.30;;
